createdAt,value
2019-04-21T00:00:55.181Z,60.07
2019-04-21T00:03:32.766Z,60.28
2019-04-21T00:06:15.647Z,61.16
2019-04-21T00:08:52.215Z,61.85
2019-04-21T00:11:22.596Z,62.37
2019-04-21T00:13:52.402Z,62.18
2019-04-21T00:16:19.212Z,62.57
2019-04-21T00:19:07.137Z,62.40
2019-04-21T00:21:40.464Z,62.34
2019-04-21T00:24:24.248Z,62.14
2019-04-21T00:27:04.208Z,62.66
2019-04-21T00:29:38.466Z,63.07
2019-04-21T00:32:08.656Z,62.87
2019-04-21T00:34:25.749Z,62.87
2019-04-21T00:37:11.255Z,62.58
2019-04-21T00:42:22.711Z,62.31
2019-04-21T00:44:59.157Z,62.80
2019-04-21T00:47:34.546Z,63.80
2019-04-21T00:50:07.587Z,64.20
2019-04-21T00:52:52.567Z,65.00
2019-04-21T00:55:29.417Z,65.67
2019-04-21T00:57:58.075Z,65.26
2019-04-21T01:00:27.734Z,65.24
2019-04-21T01:03:03.302Z,65.44
2019-04-21T01:05:42.796Z,65.13
2019-04-21T01:08:09.376Z,64.69
2019-04-21T01:10:34.740Z,63.87
2019-04-21T01:13:23.393Z,62.36
2019-04-21T01:15:53.000Z,62.35
2019-04-21T01:18:21.786Z,61.79
2019-04-21T01:20:36.390Z,62.46
2019-04-21T01:23:08.458Z,61.91
2019-04-21T01:25:50.068Z,62.31
2019-04-21T01:28:29.299Z,63.01
2019-04-21T01:31:11.101Z,63.94
2019-04-21T01:33:49.029Z,64.83
2019-04-21T01:36:14.472Z,65.33
2019-04-21T01:39:11.979Z,65.42
2019-04-21T01:41:25.506Z,65.29
2019-04-21T01:43:57.873Z,65.38
2019-04-21T01:46:25.660Z,65.69
2019-04-21T01:48:56.997Z,65.57
2019-04-21T01:51:45.374Z,64.04
2019-04-21T01:54:33.245Z,64.64
2019-04-21T01:57:01.951Z,65.49
2019-04-21T01:59:30.630Z,65.29
2019-04-21T02:02:10.754Z,65.21
2019-04-21T02:04:54.282Z,65.55
2019-04-21T02:07:20.846Z,66.29
2019-04-21T02:09:51.216Z,67.72
2019-04-21T02:12:26.675Z,69.25
2019-04-21T02:15:07.974Z,70.71
2019-04-21T02:17:31.044Z,72.08
2019-04-21T02:20:00.590Z,70.61
2019-04-21T02:22:57.484Z,69.28
2019-04-21T02:25:16.573Z,69.19
2019-04-21T02:27:49.904Z,68.55
2019-04-21T02:33:26.128Z,69.37
2019-04-21T02:35:52.747Z,68.94
2019-04-21T02:38:32.127Z,68.29
2019-04-21T02:40:46.606Z,67.04
2019-04-21T02:43:20.595Z,67.51
2019-04-21T02:45:56.186Z,68.00
2019-04-21T02:48:28.583Z,68.18
2019-04-21T02:50:49.970Z,68.38
2019-04-21T02:53:47.811Z,68.28
2019-04-21T02:56:13.852Z,67.74
2019-04-21T03:01:37.798Z,66.95
2019-04-21T03:06:53.765Z,65.77
2019-04-21T03:09:40.357Z,65.08
2019-04-21T03:12:07.020Z,63.76
2019-04-21T03:14:48.396Z,62.49
2019-04-21T03:17:06.788Z,61.18
2019-04-21T03:29:59.297Z,55.70
2019-04-21T03:37:36.899Z,54.50
2019-04-21T03:45:23.382Z,52.86
2019-04-21T03:47:53.158Z,53.18
2019-04-21T03:50:27.347Z,48.54
2019-04-21T03:53:03.477Z,45.75
2019-04-21T03:58:23.968Z,44.33
2019-04-21T04:01:05.995Z,44.37
2019-04-21T04:14:12.932Z,47.23
2019-04-21T04:16:38.048Z,46.41
2019-04-21T04:19:37.888Z,47.01
2019-04-21T04:29:33.012Z,42.57
2019-04-21T04:32:04.941Z,41.51
2019-04-21T04:40:10.667Z,34.41
2019-04-21T04:45:28.283Z,33.47
2019-04-21T04:47:36.984Z,34.39
2019-04-21T04:50:06.764Z,38.21
2019-04-21T04:55:19.210Z,34.80
2019-04-21T04:57:59.279Z,30.47
2019-04-21T05:00:34.594Z,28.12
2019-04-21T05:03:01.025Z,27.92
2019-04-21T05:06:28.595Z,29.16
2019-04-21T05:11:46.703Z,30.71
2019-04-21T05:14:03.129Z,29.59
2019-04-21T05:24:05.982Z,29.62
2019-04-21T05:26:36.304Z,28.54
2019-04-21T05:29:10.529Z,29.03
2019-04-21T05:32:14.053Z,29.26
2019-04-21T05:34:31.860Z,30.76
2019-04-21T05:37:14.251Z,29.19
2019-04-21T05:39:49.273Z,29.44
2019-04-21T05:42:25.025Z,29.85
2019-04-21T05:45:12.323Z,31.73
2019-04-21T05:47:58.472Z,31.77
2019-04-21T05:50:27.521Z,31.20
2019-04-21T05:52:58.595Z,31.07
2019-04-21T05:55:46.007Z,32.33
2019-04-21T05:58:11.277Z,32.69
2019-04-21T06:03:43.063Z,34.75
2019-04-21T06:08:53.972Z,36.21
2019-04-21T06:11:21.059Z,37.84
2019-04-21T06:13:57.545Z,36.71
2019-04-21T06:16:30.234Z,37.69
2019-04-21T06:19:03.407Z,36.78
2019-04-21T06:21:40.513Z,36.40
2019-04-21T06:24:13.100Z,35.93
2019-04-21T06:26:59.929Z,35.09
2019-04-21T06:29:28.569Z,33.79
2019-04-21T06:32:29.545Z,36.00
2019-04-21T06:34:49.641Z,33.36
2019-04-21T06:37:35.956Z,32.19
2019-04-21T06:42:18.627Z,26.49
2019-04-21T06:44:57.221Z,27.84
2019-04-21T06:47:47.369Z,25.67
2019-04-21T06:50:20.689Z,24.77
2019-04-21T06:52:56.227Z,23.70
2019-04-21T06:55:20.308Z,23.33
2019-04-21T06:58:00.685Z,23.33
2019-04-21T07:00:34.809Z,22.93
2019-04-21T07:03:17.444Z,23.77
2019-04-21T07:05:53.022Z,21.10
2019-04-21T07:08:29.390Z,21.86
2019-04-21T07:10:51.789Z,22.89
2019-04-21T07:13:29.059Z,20.70
2019-04-21T07:16:07.177Z,20.29
2019-04-21T07:18:42.467Z,19.34
2019-04-21T07:21:09.571Z,20.06
2019-04-21T07:23:45.984Z,20.53
2019-04-21T07:26:19.424Z,21.58
2019-04-21T07:28:56.865Z,20.49
2019-04-21T07:31:33.964Z,21.01
2019-04-21T07:34:22.654Z,21.89
2019-04-21T07:36:45.044Z,21.32
2019-04-21T07:39:15.300Z,22.00
2019-04-21T07:41:43.797Z,21.94
2019-04-21T07:44:16.990Z,22.85
2019-04-21T07:46:44.075Z,24.07
2019-04-21T07:49:41.493Z,21.84
2019-04-21T07:52:44.691Z,22.71
2019-04-21T07:55:20.252Z,22.81
2019-04-21T07:57:39.549Z,21.62
2019-04-21T08:00:36.862Z,20.61
2019-04-21T08:03:12.889Z,20.73
2019-04-21T08:05:39.183Z,20.16
2019-04-21T08:08:05.986Z,21.62
2019-04-21T08:10:41.579Z,21.17
2019-04-21T08:13:28.806Z,21.43
2019-04-21T08:15:52.807Z,21.89
2019-04-21T08:18:30.096Z,20.64
2019-04-21T08:21:00.800Z,21.99
2019-04-21T08:23:37.131Z,21.60
2019-04-21T08:26:07.724Z,20.84
2019-04-21T08:28:56.431Z,20.98
2019-04-21T08:31:32.309Z,20.35
2019-04-21T08:34:08.239Z,22.13
2019-04-21T08:36:35.621Z,21.34
2019-04-21T08:39:13.183Z,21.84
2019-04-21T08:41:43.950Z,20.73
2019-04-21T08:44:20.507Z,21.52
2019-04-21T08:46:52.571Z,21.71
2019-04-21T08:49:26.596Z,21.82
2019-04-21T08:52:13.750Z,21.52
2019-04-21T08:54:43.972Z,21.59
2019-04-21T08:57:46.448Z,21.88
2019-04-21T09:00:12.560Z,22.83
2019-04-21T09:03:01.773Z,22.52
2019-04-21T09:05:29.724Z,23.28
2019-04-21T09:08:05.291Z,22.68
2019-04-21T09:10:39.621Z,22.55
2019-04-21T09:13:10.182Z,22.46
2019-04-21T09:15:47.986Z,20.63
2019-04-21T09:18:18.808Z,22.30
2019-04-21T09:21:02.670Z,22.95
2019-04-21T09:23:36.437Z,24.39
2019-04-21T09:26:14.172Z,25.19
2019-04-21T09:28:39.612Z,23.85
2019-04-21T09:31:05.303Z,25.99
2019-04-21T09:33:46.721Z,23.34
2019-04-21T09:36:18.023Z,27.07
2019-04-21T09:38:58.694Z,24.18
2019-04-21T09:41:24.258Z,23.49
2019-04-21T09:43:59.739Z,25.80
2019-04-21T09:46:43.263Z,24.93
2019-04-21T09:49:15.634Z,24.77
2019-04-21T09:51:47.966Z,26.48
2019-04-21T09:54:45.839Z,25.96
2019-04-21T09:57:24.299Z,25.94
2019-04-21T09:59:55.759Z,27.13
2019-04-21T10:02:34.231Z,27.54
2019-04-21T10:04:57.355Z,27.26
2019-04-21T10:07:34.994Z,26.17
2019-04-21T10:10:10.773Z,27.32
2019-04-21T10:12:43.938Z,27.34
2019-04-21T10:15:16.539Z,27.93
2019-04-21T10:17:49.971Z,28.51
2019-04-21T10:20:22.481Z,26.91
2019-04-21T10:22:59.419Z,28.51
2019-04-21T10:25:34.575Z,26.34
2019-04-21T10:28:10.949Z,26.02
2019-04-21T10:30:46.796Z,28.08
2019-04-21T10:33:19.589Z,26.39
2019-04-21T10:35:50.942Z,27.85
2019-04-21T10:38:33.281Z,27.38
2019-04-21T10:41:03.388Z,27.12
2019-04-21T10:43:37.491Z,26.30
2019-04-21T10:46:12.917Z,25.89
2019-04-21T10:48:46.348Z,26.70
2019-04-21T10:51:21.121Z,25.20
2019-04-21T10:53:55.978Z,27.97
2019-04-21T10:56:36.373Z,26.91
2019-04-21T10:59:05.225Z,26.37
2019-04-21T11:01:37.009Z,27.04
2019-04-21T11:04:26.933Z,27.04
2019-04-21T11:06:58.276Z,25.73
2019-04-21T11:09:29.542Z,24.03
2019-04-21T11:12:04.070Z,27.11
2019-04-21T11:14:37.296Z,25.71
2019-04-21T11:17:12.597Z,26.91
2019-04-21T11:19:44.228Z,26.06
2019-04-21T11:22:23.070Z,27.38
2019-04-21T11:24:56.660Z,26.75
2019-04-21T11:27:28.837Z,27.32
2019-04-21T11:30:02.254Z,27.87
2019-04-21T11:32:37.179Z,26.82
2019-04-21T11:35:09.651Z,26.46
2019-04-21T11:37:42.103Z,27.99
2019-04-21T11:40:17.623Z,28.32
2019-04-21T11:42:51.452Z,26.50
2019-04-21T11:45:34.739Z,26.12
2019-04-21T11:48:14.375Z,25.68
2019-04-21T11:50:50.945Z,27.30
2019-04-21T11:53:25.238Z,27.12
2019-04-21T11:55:59.140Z,27.21
2019-04-21T11:58:34.058Z,26.45
2019-04-21T12:01:07.692Z,26.65
2019-04-21T12:03:43.574Z,28.01
2019-04-21T12:06:15.524Z,25.09
2019-04-21T12:08:50.830Z,25.75
2019-04-21T12:11:23.269Z,25.99
2019-04-21T12:13:56.233Z,25.57
2019-04-21T12:16:28.757Z,27.91
2019-04-21T12:19:02.757Z,27.31
2019-04-21T12:21:47.893Z,25.51
2019-04-21T12:24:09.033Z,24.12
2019-04-21T12:26:42.206Z,24.82
2019-04-21T12:29:14.632Z,26.10
2019-04-21T12:32:07.604Z,25.38
2019-04-21T12:34:39.793Z,24.80
2019-04-21T12:37:17.079Z,26.49
2019-04-21T12:39:50.621Z,28.01
2019-04-21T12:42:24.870Z,27.17
2019-04-21T12:44:57.218Z,26.25
2019-04-21T12:47:30.198Z,25.69
2019-04-21T12:50:02.753Z,25.77
2019-04-21T12:52:36.028Z,23.61
2019-04-21T12:55:09.339Z,24.39
2019-04-21T12:57:41.543Z,23.23
2019-04-21T13:00:15.286Z,24.99
2019-04-21T13:02:47.753Z,24.52
2019-04-21T13:05:19.968Z,25.70
2019-04-21T13:07:51.783Z,25.46
2019-04-21T13:10:24.282Z,25.86
2019-04-21T13:12:57.009Z,25.19
2019-04-21T13:15:29.354Z,26.41
2019-04-21T13:18:02.593Z,25.39
2019-04-21T13:20:36.364Z,24.75
2019-04-21T13:23:08.143Z,26.78
2019-04-21T13:25:39.785Z,23.77
2019-04-21T13:28:14.526Z,25.89
2019-04-21T13:30:48.595Z,25.06
2019-04-21T13:33:21.057Z,25.28
2019-04-21T13:36:02.841Z,25.64
2019-04-21T13:38:49.213Z,25.06
2019-04-21T13:41:31.411Z,25.14
2019-04-21T13:43:50.858Z,25.49
2019-04-21T13:46:24.937Z,24.90
2019-04-21T13:48:56.778Z,25.07
2019-04-21T13:51:31.174Z,25.35
2019-04-21T13:54:07.426Z,25.24
2019-04-21T13:56:40.723Z,24.14
2019-04-21T13:59:14.032Z,24.60
2019-04-21T14:01:47.688Z,25.80
2019-04-21T14:04:23.374Z,25.18
2019-04-21T14:06:56.396Z,24.38
2019-04-21T14:09:40.410Z,25.21
2019-04-21T14:12:05.451Z,24.09
2019-04-21T14:14:38.534Z,24.51
2019-04-21T14:17:11.241Z,25.07
2019-04-21T14:19:45.611Z,25.80
2019-04-21T14:22:20.629Z,24.92
2019-04-21T14:24:54.159Z,25.46
2019-04-21T14:27:26.004Z,25.64
2019-04-21T14:30:00.710Z,25.01
2019-04-21T14:32:38.056Z,26.25
2019-04-21T14:35:10.929Z,25.37
2019-04-21T14:37:44.578Z,26.75
2019-04-21T14:40:22.511Z,26.71
2019-04-21T14:42:54.046Z,26.52
2019-04-21T14:45:30.978Z,26.16
2019-04-21T14:48:09.209Z,25.99
2019-04-21T14:50:48.334Z,27.22
2019-04-21T14:53:23.782Z,26.24
2019-04-21T14:55:59.448Z,26.22
2019-04-21T14:58:32.938Z,26.21
2019-04-21T15:01:08.618Z,26.76
2019-04-21T15:03:39.591Z,26.49
2019-04-21T15:06:13.521Z,27.49
2019-04-21T15:08:47.137Z,27.31
2019-04-21T15:11:22.164Z,25.98
2019-04-21T15:13:53.785Z,26.23
2019-04-21T15:16:25.328Z,27.02
2019-04-21T15:18:59.159Z,24.98
2019-04-21T15:21:40.601Z,24.89
2019-04-21T15:24:18.330Z,25.25
2019-04-21T15:26:52.541Z,25.48
2019-04-21T15:29:24.631Z,26.19
2019-04-21T15:31:58.697Z,26.21
2019-04-21T15:34:31.872Z,27.11
2019-04-21T15:37:08.226Z,27.28
2019-04-21T15:39:51.460Z,26.43
2019-04-21T15:42:32.656Z,27.39
2019-04-21T15:45:12.669Z,28.18
2019-04-21T15:47:47.667Z,28.26
2019-04-21T15:50:26.505Z,28.06
2019-04-21T15:53:01.434Z,27.83
2019-04-21T15:55:48.655Z,28.37
2019-04-21T15:58:35.047Z,28.12
2019-04-21T16:01:16.489Z,27.87
2019-04-21T16:03:52.509Z,28.30
2019-04-21T16:06:25.686Z,28.64
2019-04-21T16:09:06.118Z,28.89
2019-04-21T16:11:39.937Z,28.53
2019-04-21T16:14:14.478Z,28.69
2019-04-21T16:16:47.456Z,28.87
2019-04-21T16:19:20.803Z,29.01
2019-04-21T16:21:52.906Z,29.38
2019-04-21T16:24:27.466Z,29.28
2019-04-21T16:27:04.863Z,29.47
2019-04-21T16:29:39.821Z,29.67
2019-04-21T16:32:14.617Z,29.54
2019-04-21T16:34:55.703Z,29.86
2019-04-21T16:37:21.649Z,30.18
2019-04-21T16:39:59.069Z,30.46
2019-04-21T16:42:32.157Z,30.61
2019-04-21T16:45:07.290Z,30.84
2019-04-21T16:47:40.226Z,30.94
2019-04-21T16:50:13.977Z,30.89
2019-04-21T16:52:49.921Z,31.08
2019-04-21T16:55:41.466Z,31.12
2019-04-21T16:58:28.930Z,31.17
2019-04-21T17:01:08.306Z,31.40
2019-04-21T17:03:37.420Z,31.26
2019-04-21T17:06:13.264Z,31.05
2019-04-21T17:08:47.043Z,31.12
2019-04-21T17:11:25.703Z,31.49
2019-04-21T17:13:54.237Z,32.14
2019-04-21T17:16:48.314Z,32.11
2019-04-21T17:19:13.584Z,32.11
2019-04-21T17:21:37.628Z,32.12
2019-04-21T17:24:10.655Z,32.12
2019-04-21T17:26:46.044Z,32.19
2019-04-21T17:29:18.766Z,32.12
2019-04-21T17:31:53.294Z,32.62
2019-04-21T17:34:29.347Z,32.83
2019-04-21T17:37:03.497Z,32.83
2019-04-21T17:39:40.711Z,33.00
2019-04-21T17:42:27.521Z,33.10
2019-04-21T17:44:51.043Z,33.08
2019-04-21T17:47:39.417Z,32.94
2019-04-21T17:50:07.666Z,33.13
2019-04-21T17:52:53.939Z,33.24
2019-04-21T17:55:28.301Z,33.19
2019-04-21T17:58:21.690Z,33.20
2019-04-21T18:01:10.873Z,33.50
2019-04-21T18:03:46.177Z,33.50
2019-04-21T18:06:07.455Z,33.44
2019-04-21T18:08:50.677Z,33.58
2019-04-21T18:11:15.388Z,33.91
2019-04-21T18:13:39.573Z,34.25
2019-04-21T18:16:23.002Z,34.52
2019-04-21T18:18:46.632Z,34.37
2019-04-21T18:21:20.951Z,34.54
2019-04-21T18:24:05.764Z,34.60
2019-04-21T18:26:41.809Z,34.71
2019-04-21T18:29:03.471Z,34.71
2019-04-21T18:31:44.817Z,34.89
2019-04-21T18:34:17.832Z,35.05
2019-04-21T18:36:57.523Z,35.30
2019-04-21T18:39:59.981Z,35.44
2019-04-21T18:42:42.221Z,35.47
2019-04-21T18:48:04.851Z,35.60
2019-04-21T18:50:45.849Z,35.65
2019-04-21T18:53:41.429Z,35.74
2019-04-21T18:56:05.271Z,35.84
2019-04-21T18:58:38.159Z,36.41
2019-04-21T19:01:18.263Z,36.22
2019-04-21T19:03:50.081Z,36.02
2019-04-21T19:06:43.132Z,36.09
2019-04-21T19:09:14.300Z,36.15
2019-04-21T19:11:53.486Z,36.16
2019-04-21T19:14:39.366Z,35.97
2019-04-21T19:17:48.548Z,36.05
2019-04-21T19:20:07.426Z,35.77
2019-04-21T19:22:33.005Z,36.00
2019-04-21T19:25:13.100Z,35.78
2019-04-21T19:27:50.279Z,36.15
2019-04-21T19:30:36.632Z,36.20
2019-04-21T19:33:06.917Z,36.14
2019-04-21T19:35:23.593Z,36.13
2019-04-21T19:38:06.667Z,36.32
2019-04-21T19:40:52.253Z,36.44
2019-04-21T19:43:31.483Z,36.87
2019-04-21T19:46:04.531Z,37.20
2019-04-21T19:48:44.470Z,37.66
2019-04-21T19:51:15.164Z,37.83
2019-04-21T19:53:44.607Z,38.29
2019-04-21T19:56:14.144Z,38.01
2019-04-21T19:58:51.256Z,37.90
2019-04-21T20:01:25.489Z,37.85
2019-04-21T20:04:02.937Z,37.92
2019-04-21T20:06:52.271Z,38.84
2019-04-21T20:09:37.041Z,38.72
2019-04-21T20:12:13.139Z,39.11
2019-04-21T20:14:57.640Z,39.26
2019-04-21T20:17:18.850Z,39.26
2019-04-21T20:19:40.303Z,39.19
2019-04-21T20:22:14.863Z,39.29
2019-04-21T20:25:00.166Z,39.40
2019-04-21T20:27:38.848Z,39.13
2019-04-21T20:30:21.880Z,39.36
2019-04-21T20:32:56.596Z,39.27
2019-04-21T20:35:43.348Z,39.24
2019-04-21T20:37:59.119Z,39.61
2019-04-21T20:40:30.911Z,39.63
2019-04-21T20:43:19.322Z,40.88
2019-04-21T20:45:56.334Z,40.39
2019-04-21T20:48:13.789Z,40.86
2019-04-21T20:51:01.928Z,40.43
2019-04-21T20:53:33.009Z,40.62
2019-04-21T20:56:04.702Z,40.61
2019-04-21T20:58:45.181Z,40.42
2019-04-21T21:03:56.124Z,40.13
2019-04-21T21:06:26.060Z,39.86
2019-04-21T21:09:01.356Z,40.07
2019-04-21T21:11:29.347Z,40.17
2019-04-21T21:14:14.636Z,40.72
2019-04-21T21:16:47.701Z,42.25
2019-04-21T21:19:23.617Z,43.09
2019-04-21T21:21:49.700Z,43.97
2019-04-21T21:24:33.217Z,44.45
2019-04-21T21:26:58.109Z,44.83
2019-04-21T21:29:45.179Z,44.71
2019-04-21T21:32:15.190Z,44.82
2019-04-21T21:34:40.995Z,45.15
2019-04-21T21:37:21.621Z,46.24
2019-04-21T21:39:57.246Z,46.47
2019-04-21T21:42:08.086Z,44.56
2019-04-21T21:44:49.525Z,43.08
2019-04-21T21:47:27.991Z,43.11
2019-04-21T21:50:01.241Z,43.28
2019-04-21T21:52:36.701Z,45.22
2019-04-21T21:54:55.995Z,46.55
2019-04-21T21:57:32.959Z,47.81
2019-04-21T22:00:04.737Z,48.31
2019-04-21T22:02:45.339Z,48.11
2019-04-21T22:05:16.794Z,47.17
2019-04-21T22:07:46.602Z,46.66
2019-04-21T22:10:20.111Z,47.25
2019-04-21T22:13:02.281Z,46.40
2019-04-21T22:15:32.017Z,45.39
2019-04-21T22:18:24.701Z,44.92
2019-04-21T22:20:55.161Z,44.50
2019-04-21T22:23:12.995Z,44.11
2019-04-21T22:25:43.906Z,43.77
2019-04-21T22:28:15.738Z,43.78
2019-04-21T22:30:51.830Z,44.29
2019-04-21T22:33:25.902Z,45.30
2019-04-21T22:36:09.846Z,46.56
2019-04-21T22:38:47.734Z,47.59
2019-04-21T22:41:18.921Z,47.14
2019-04-21T22:43:44.392Z,46.88
2019-04-21T22:46:15.448Z,46.09
2019-04-21T22:48:53.172Z,46.24
2019-04-21T22:51:30.174Z,46.95
2019-04-21T22:53:57.534Z,48.18
2019-04-21T22:56:32.026Z,47.22
2019-04-21T22:59:04.230Z,46.58
2019-04-21T23:01:41.289Z,46.08
2019-04-21T23:04:10.686Z,45.29
2019-04-21T23:06:44.522Z,44.77
2019-04-21T23:09:16.958Z,44.22
2019-04-21T23:11:52.600Z,43.80
2019-04-21T23:14:23.744Z,43.70
2019-04-21T23:17:14.951Z,43.51
2019-04-21T23:19:43.770Z,43.44
2019-04-21T23:22:21.467Z,43.12
2019-04-21T23:25:00.503Z,43.48
2019-04-21T23:27:23.292Z,45.16
2019-04-21T23:30:09.755Z,46.77
2019-04-21T23:32:31.892Z,45.99
2019-04-21T23:34:54.022Z,44.71
2019-04-21T23:37:26.096Z,43.71
2019-04-21T23:40:03.755Z,43.39
2019-04-21T23:42:38.002Z,43.29
2019-04-21T23:45:09.189Z,43.31
2019-04-21T23:48:00.672Z,43.75
2019-04-21T23:50:30.467Z,44.37
2019-04-21T23:52:53.482Z,44.53
2019-04-21T23:55:25.409Z,43.83
2019-04-21T23:58:07.129Z,43.60
